»·PEaware :: SKULL71 KLSV-KLSV

SKULL71 :: KLSV-KLSV

FLIGHT INFORMATION

Flight Status: Arrived
Operator: Unknown
More flights by this operator :: More flights under this callsign
Pilot: Chris S. (2433)
Aircraft: NORTHROP F-5 FREEDON FIGHTER
(F5)
More flights by this aircraft type
Origin: KLSV Nellis AFB
United States
Destination: KLSV Nellis AFB
United States
More flights between these airports :: More routes between these airports
Route: +DREAM4 JUNNO
File this flight plan on PilotEdge
Remarks: CLNC LIMIT JUUNO
Altitude:
(Current/Filed)
17,000ft
Speed:
(Current/Filed)
310kts
Departed: 17-Jun-17 07:49 PM
Arrived: 17-Jun-17 08:30 PM
Distance/Time
Traveled:
1nm/0:41
Distance/Time
To Go:
Arrived

Flight Plot

Page will automatically refresh every two minutes.

Flight plan parsing failed; only flown route is shown


Map Options




Map Legend


Flown Route
Filed Route
Departure Airport
Arrival Airport
Navaid (VOR, NDB)
Fix

Horizontal Profiles

Position Reports

Time Latitude Longitude Heading Altitude Ground
Speed
17-Jun-17 19:32 36.232358 -115.022535 94 1849ft 0kts
17-Jun-17 19:33 36.232358 -115.022535 94 1849ft 0kts
17-Jun-17 19:34 36.232358 -115.022535 94 1849ft 0kts
17-Jun-17 19:35 36.232358 -115.022535 94 1849ft 0kts
17-Jun-17 19:36 36.232358 -115.022535 94 1849ft 0kts
17-Jun-17 19:37 36.232358 -115.022535 94 1849ft 0kts
17-Jun-17 19:38 36.231494 -115.024020 244 1849ft 7kts
17-Jun-17 19:39 36.230976 -115.025994 238 1848ft 0kts
17-Jun-17 19:40 36.230976 -115.025994 239 1848ft 0kts
17-Jun-17 19:41 36.230976 -115.025994 239 1848ft 0kts
17-Jun-17 19:42 36.230976 -115.025994 239 1848ft 0kts
17-Jun-17 19:43 36.230976 -115.025994 239 1848ft 0kts
17-Jun-17 19:44 36.230733 -115.029686 268 1847ft 15kts
17-Jun-17 19:45 36.228708 -115.033854 218 1847ft 15kts
17-Jun-17 19:46 36.224897 -115.037995 220 1847ft 17kts
17-Jun-17 19:47 36.223488 -115.042082 310 1846ft 16kts
17-Jun-17 19:48 36.224393 -115.043314 317 1846ft 0kts
17-Jun-17 19:49 36.224393 -115.043314 317 1846ft 0kts
17-Jun-17 19:50 36.224393 -115.043314 317 1846ft 0kts
17-Jun-17 19:51 36.225763 -115.043108 39 1846ft 8kts
17-Jun-17 19:52 36.248545 -115.017248 41 2302ft 252kts
17-Jun-17 19:53 36.312460 -114.941846 41 5217ft 364kts
17-Jun-17 19:54 36.400185 -114.882841 2 10671ft 368kts
17-Jun-17 19:55 36.511122 -114.877039 357 13704ft 424kts
17-Jun-17 19:56 36.638318 -114.884373 354 16240ft 475kts
17-Jun-17 19:57 36.777700 -114.901298 351 17215ft 530kts
17-Jun-17 19:58 36.925825 -114.933154 333 17281ft 546kts
17-Jun-17 19:59 37.010736 -115.083225 280 17248ft 560kts
17-Jun-17 20:00 37.037131 -115.275871 278 16449ft 566kts
17-Jun-17 20:01 37.059326 -115.471683 284 15216ft 566kts
17-Jun-17 20:02 37.113898 -115.639930 302 19478ft 495kts
17-Jun-17 20:03 37.080702 -115.596038 95 19263ft 448kts
17-Jun-17 20:04 37.058961 -115.424083 97 16697ft 571kts
17-Jun-17 20:05 36.995620 -115.243061 155 6867ft 613kts
17-Jun-17 20:06 36.925316 -115.205825 304 5276ft 493kts
17-Jun-17 20:07 37.050426 -115.270702 73 4961ft 580kts
17-Jun-17 20:08 36.935553 -115.204466 51 15576ft 456kts
17-Jun-17 20:09 37.067027 -115.237802 311 13058ft 530kts
17-Jun-17 20:10 37.008039 -115.344128 150 16124ft 520kts
17-Jun-17 20:11 36.949421 -115.183666 97 13245ft 489kts
17-Jun-17 20:12 36.925301 -115.032114 113 10843ft 415kts
17-Jun-17 20:13 36.831611 -114.964122 164 10593ft 437kts
17-Jun-17 20:14 36.718272 -114.927471 163 10890ft 400kts
17-Jun-17 20:15 36.605308 -114.902107 170 10677ft 441kts
17-Jun-17 20:16 36.473780 -114.879906 171 10561ft 505kts
17-Jun-17 20:17 36.334298 -114.846153 146 10815ft 521kts
17-Jun-17 20:18 36.288967 -114.691549 65 10359ft 521kts
17-Jun-17 20:19 36.381752 -114.626398 338 9881ft 364kts
17-Jun-17 20:20 36.426095 -114.727699 251 10439ft 408kts
17-Jun-17 20:21 36.325638 -114.795633 167 10638ft 474kts
17-Jun-17 20:22 36.248874 -114.673576 86 10578ft 502kts
17-Jun-17 20:23 36.329010 -114.544139 14 10100ft 508kts
17-Jun-17 20:24 36.432131 -114.621554 276 10463ft 512kts
17-Jun-17 20:25 36.384455 -114.765524 235 10033ft 376kts
17-Jun-17 20:26 36.329325 -114.870948 238 8584ft 372kts
17-Jun-17 20:27 36.272777 -114.972211 210 7055ft 340kts
17-Jun-17 20:28 36.202361 -114.927642 89 7538ft 355kts
17-Jun-17 20:29 36.279062 -114.872472 338 7710ft 394kts
17-Jun-17 20:30 36.297222 -114.972807 219 4594ft 359kts
17-Jun-17 20:31 36.244797 -115.048514 11 2966ft 265kts
17-Jun-17 20:32 36.239853 -115.032395 220 1858ft 155kts
17-Jun-17 20:33 36.230599 -115.042632 213 1847ft 16kts
17-Jun-17 20:34 36.226658 -115.048786 138 1847ft 0kts
17-Jun-17 20:35 36.226658 -115.048785 138 1847ft 0kts
17-Jun-17 20:36 36.226658 -115.048785 138 1847ft 0kts
17-Jun-17 20:37 36.226658 -115.048785 138 1847ft 0kts
17-Jun-17 20:38 36.226658 -115.048785 138 1847ft 0kts
17-Jun-17 20:39 36.226658 -115.048785 138 1847ft 0kts
17-Jun-17 20:40 36.226658 -115.048785 138 1847ft 0kts
17-Jun-17 20:41 36.226658 -115.048785 138 1847ft 0kts
17-Jun-17 20:41 36.226658 -115.048785 138 1847ft 0kts
17-Jun-17 20:42 36.226658 -115.048785 138 1847ft 0kts
17-Jun-17 20:44 36.226658 -115.048785 138 1849ft 0kts

Navigation Log

Ident Type
Flight plan parsing failed, navigation log unavailable